Torreon, New Mexico
Current Conditions -  °F | °C
As of 5:55 PM on Monday 22 Dec 2014 (Local Time) from K0E0 Reporting Station
Scattered Clouds Scattered Clouds  
Wind Chill: 32°   Ceiling: Unl
Heat Index: 43°   Visibility: 10mi
Dew Point: 28°   Wind: 29mph
Humidity: 56%   Direction: 320°NW
Pressure: 29.73"   Gusts: 47mph
Location:  34.72°N, 106.3°W
Report Text: K0E0 230055Z AUTO 32025G41KT 10SM SCT060 06/M02 A2973 RMK AO2 T00601023
Loading
Personal Weather Stations






























Interactive Weather Map New forecast layout! Learn more

10-Day Weather Forecast

Advertisements
Track Severe Weather on mobile